PWSweather.com
Personal Weather Stations
Station Observations
ICAMBRID16
ChatterisGB PE16 6AY

ChatterisGB PE16 6AY

Lat: 52.45616, Lon: 0.05771

Elevation: 17

Station Type: Davis Vantage Pro 2

https://www.chatteris.biz

Latest ConditionsUpdated 12:15:48 PM GMT Tuesday, Jul 23, 2019
Currently Today's Max Today's Min Today's Average
Temperature 86.4°F30.2°C 86.4°F30.2°C 61.5°F16.4°C 70.5°F21.4°C
Dew Point 64.4°F18.0°C 66.2°F19.0°C 58.8°F14.9°C 62.5°F16.9°C
Winds 4.9 mph SSW7.9 kmh SSW 4.9 mph -7.9 kmh - - 2.3 mph 3.7 kmh
Wind Gusts 12.1 mph19.5 kmh 15.0 mph24.1 kmh - -
Humidity 48% 92% 48% 78%
Pressure 30.01 in1016.3 mb 30.11 in1019.6 mb 30.01 in1016.3 mb -
Hour Temp Dew Point Humidity Winds Wind Gusts Pressure Precip Precip Rate Daily Precip Total
12:15 PM 86.4°F30.2°C 64.4°F18.0°C 48% 4.9 mph SSW7.9 kmh SSW 12.1 mph19.5 kmh 30.01 in1016.3 mb 0.00 in0.0 mm 0.00 in0.0 mm 0.00 in0.0 mm
11:45 AM 84.6°F29.2°C 64.9°F18.3°C 52% 4.9 mph SSW7.9 kmh SSW 13.0 mph20.9 kmh 30.02 in1016.6 mb 0.00 in0.0 mm 0.00 in0.0 mm 0.00 in0.0 mm
11:15 AM 83.1°F28.4°C 65.3°F18.5°C 55% 4.9 mph S7.9 kmh S 11.0 mph17.7 kmh 30.02 in1016.6 mb 0.00 in0.0 mm 0.00 in0.0 mm 0.00 in0.0 mm
10:45 AM 81.7°F27.6°C 66.0°F18.9°C 59% 4.9 mph ESE7.9 kmh ESE 12.1 mph19.5 kmh 30.03 in1016.9 mb 0.00 in0.0 mm 0.00 in0.0 mm 0.00 in0.0 mm
10:15 AM 79.9°F26.6°C 66.2°F19.0°C 63% 4.9 mph ESE7.9 kmh ESE 15.0 mph24.1 kmh 30.05 in1017.6 mb 0.00 in0.0 mm 0.00 in0.0 mm 0.00 in0.0 mm
09:45 AM 78.3°F25.7°C 65.5°F18.6°C 65% 4.9 mph SE7.9 kmh SE 13.0 mph20.9 kmh 30.06 in1017.9 mb 0.00 in0.0 mm 0.00 in0.0 mm 0.00 in0.0 mm
09:15 AM 77.4°F25.2°C 65.1°F18.4°C 66% 4.9 mph ESE7.9 kmh ESE 11.0 mph17.7 kmh 30.06 in1017.9 mb 0.00 in0.0 mm 0.00 in0.0 mm 0.00 in0.0 mm
08:45 AM 76.1°F24.5°C 65.1°F18.4°C 69% 4.9 mph E7.9 kmh E 12.1 mph19.5 kmh 30.07 in1018.3 mb 0.00 in0.0 mm 0.00 in0.0 mm 0.00 in0.0 mm
08:15 AM 74.8°F23.8°C 64.4°F18.0°C 70% 4.9 mph SE7.9 kmh SE 11.0 mph17.7 kmh 30.08 in1018.6 mb 0.00 in0.0 mm 0.00 in0.0 mm 0.00 in0.0 mm
07:45 AM 73.9°F23.3°C 64.8°F18.2°C 73% 2.9 mph E4.7 kmh E 8.1 mph13.0 kmh 30.09 in1019.0 mb 0.00 in0.0 mm 0.00 in0.0 mm 0.00 in0.0 mm
07:15 AM 72.3°F22.4°C 65.5°F18.6°C 79% 2.0 mph E3.2 kmh E 4.0 mph6.4 kmh 30.09 in1019.0 mb 0.00 in0.0 mm 0.00 in0.0 mm 0.00 in0.0 mm
06:45 AM 68.7°F20.4°C 64.0°F17.8°C 85% 0.9 mph SSE1.4 kmh SSE 2.0 mph3.2 kmh 30.09 in1019.0 mb 0.00 in0.0 mm 0.00 in0.0 mm 0.00 in0.0 mm
06:15 AM 66.9°F19.4°C 63.3°F17.4°C 88% 0.9 mph S1.4 kmh S 3.0 mph4.8 kmh 30.09 in1019.0 mb 0.00 in0.0 mm 0.00 in0.0 mm 0.00 in0.0 mm
05:45 AM 64.9°F18.3°C 62.2°F16.8°C 91% 0.9 mph S1.4 kmh S 4.0 mph6.4 kmh 30.10 in1019.3 mb 0.00 in0.0 mm 0.00 in0.0 mm 0.00 in0.0 mm
05:15 AM 62.4°F16.9°C 60.1°F15.6°C 92% 0.9 mph S1.4 kmh S 3.0 mph4.8 kmh 30.10 in1019.3 mb 0.00 in0.0 mm 0.00 in0.0 mm 0.00 in0.0 mm
04:45 AM 61.7°F16.5°C 59.4°F15.2°C 92% Calm Calm 2.0 mph3.2 kmh 30.10 in1019.3 mb 0.00 in0.0 mm 0.00 in0.0 mm 0.00 in0.0 mm
04:15 AM 61.5°F16.4°C 59.2°F15.1°C 92% Calm Calm -- 30.10 in1019.3 mb 0.00 in0.0 mm 0.00 in0.0 mm 0.00 in0.0 mm
03:45 AM 61.5°F16.4°C 58.8°F14.9°C 91% Calm Calm -- 30.10 in1019.3 mb 0.00 in0.0 mm 0.00 in0.0 mm 0.00 in0.0 mm
03:15 AM 62.1°F16.7°C 58.8°F14.9°C 89% Calm Calm -- 30.09 in1019.0 mb 0.00 in0.0 mm 0.00 in0.0 mm 0.00 in0.0 mm
02:45 AM 62.4°F16.9°C 59.2°F15.1°C 89% Calm Calm -- 30.10 in1019.3 mb 0.00 in0.0 mm 0.00 in0.0 mm 0.00 in0.0 mm
02:15 AM 63.1°F17.3°C 59.5°F15.3°C 88% Calm Calm 2.0 mph3.2 kmh 30.10 in1019.3 mb 0.00 in0.0 mm 0.00 in0.0 mm 0.00 in0.0 mm
01:45 AM 64.2°F17.9°C 60.3°F15.7°C 87% 0.9 mph SW1.4 kmh SW 3.0 mph4.8 kmh 30.10 in1019.3 mb 0.00 in0.0 mm 0.00 in0.0 mm 0.00 in0.0 mm
01:15 AM 64.4°F18.0°C 60.4°F15.8°C 87% 0.9 mph SW1.4 kmh SW 3.0 mph4.8 kmh 30.10 in1019.3 mb 0.00 in0.0 mm 0.00 in0.0 mm 0.00 in0.0 mm
12:45 AM 64.8°F18.2°C 60.1°F15.6°C 85% 0.9 mph 1.4 kmh 2.0 mph3.2 kmh 30.11 in1019.6 mb 0.00 in0.0 mm 0.00 in0.0 mm 0.00 in0.0 mm
12:15 AM 65.7°F18.7°C 60.6°F15.9°C 84% 2.0 mph SW3.2 kmh SW 3.0 mph4.8 kmh 30.10 in1019.3 mb 0.00 in0.0 mm 0.00 in0.0 mm 0.00 in0.0 mm